sensor_id;sensor_type;location;lat;lon;timestamp;pressure;altitude;pressure_sealevel;temperature;humidity
19827;BME280;10074;52.018;4.726;2023-08-17T00:04:11;46299.47;;;-144.79;100.00
19827;BME280;10074;52.018;4.726;2023-08-17T00:09:11;46301.47;;;-144.79;100.00
19827;BME280;10074;52.018;4.726;2023-08-17T00:14:13;46295.44;;;-144.79;100.00
19827;BME280;10074;52.018;4.726;2023-08-17T00:19:13;46295.44;;;-144.79;100.00
19827;BME280;10074;52.018;4.726;2023-08-17T00:24:13;46287.44;;;-144.79;100.00
19827;BME280;10074;52.018;4.726;2023-08-17T00:29:14;46289.44;;;-144.79;100.00
19827;BME280;10074;52.018;4.726;2023-08-17T00:34:15;46291.44;;;-144.79;100.00
19827;BME280;10074;52.018;4.726;2023-08-17T00:39:15;46291.44;;;-144.79;100.00
19827;BME280;10074;52.018;4.726;2023-08-17T00:44:16;46295.44;;;-144.79;100.00
19827;BME280;10074;52.018;4.726;2023-08-17T00:49:16;46287.44;;;-144.79;100.00
19827;BME280;10074;52.018;4.726;2023-08-17T00:54:23;46287.44;;;-144.79;100.00
19827;BME280;10074;52.018;4.726;2023-08-17T00:59:25;46295.44;;;-144.79;100.00
19827;BME280;10074;52.018;4.726;2023-08-17T01:04:26;46287.44;;;-144.79;100.00
19827;BME280;10074;52.018;4.726;2023-08-17T01:09:26;46287.44;;;-144.79;100.00
19827;BME280;10074;52.018;4.726;2023-08-17T01:14:44;46283.41;;;-144.79;100.00
19827;BME280;10074;52.018;4.726;2023-08-17T01:19:50;46291.44;;;-144.79;100.00
19827;BME280;10074;52.018;4.726;2023-08-17T01:24:55;46289.44;;;-144.79;100.00
19827;BME280;10074;52.018;4.726;2023-08-17T01:29:57;46285.41;;;-144.79;100.00
19827;BME280;10074;52.018;4.726;2023-08-17T01:40:18;46283.41;;;-144.79;100.00
19827;BME280;10074;52.018;4.726;2023-08-17T01:45:19;46279.41;;;-144.79;100.00
19827;BME280;10074;52.018;4.726;2023-08-17T01:50:20;46287.44;;;-144.79;100.00
19827;BME280;10074;52.018;4.726;2023-08-17T01:55:21;46279.41;;;-144.79;100.00
19827;BME280;10074;52.018;4.726;2023-08-17T02:00:23;46279.41;;;-144.79;100.00
19827;BME280;10074;52.018;4.726;2023-08-17T02:05:34;46277.41;;;-144.79;100.00
19827;BME280;10074;52.018;4.726;2023-08-17T02:10:34;46283.41;;;-144.79;100.00
19827;BME280;10074;52.018;4.726;2023-08-17T02:15:39;46283.41;;;-144.79;100.00
19827;BME280;10074;52.018;4.726;2023-08-17T02:20:39;46277.41;;;-144.79;100.00
19827;BME280;10074;52.018;4.726;2023-08-17T02:25:40;46279.41;;;-144.79;100.00
19827;BME280;10074;52.018;4.726;2023-08-17T02:30:41;46273.38;;;-144.79;100.00
19827;BME280;10074;52.018;4.726;2023-08-17T02:35:42;46275.41;;;-144.79;100.00
19827;BME280;10074;52.018;4.726;2023-08-17T02:40:42;46289.44;;;-144.79;100.00
19827;BME280;10074;52.018;4.726;2023-08-17T02:45:42;46287.44;;;-144.79;100.00
19827;BME280;10074;52.018;4.726;2023-08-17T02:50:43;46287.44;;;-144.79;100.00
19827;BME280;10074;52.018;4.726;2023-08-17T02:55:43;46285.41;;;-144.79;100.00
19827;BME280;10074;52.018;4.726;2023-08-17T03:00:44;46277.41;;;-144.79;100.00
19827;BME280;10074;52.018;4.726;2023-08-17T03:05:47;46275.41;;;-144.79;100.00
19827;BME280;10074;52.018;4.726;2023-08-17T03:10:48;46283.41;;;-144.79;100.00
19827;BME280;10074;52.018;4.726;2023-08-17T03:15:49;46279.41;;;-144.79;100.00
19827;BME280;10074;52.018;4.726;2023-08-17T03:20:50;46283.41;;;-144.79;100.00
19827;BME280;10074;52.018;4.726;2023-08-17T03:25:53;46283.41;;;-144.79;100.00
19827;BME280;10074;52.018;4.726;2023-08-17T03:30:55;46285.41;;;-144.79;100.00
19827;BME280;10074;52.018;4.726;2023-08-17T03:35:56;46279.41;;;-144.79;100.00
19827;BME280;10074;52.018;4.726;2023-08-17T03:40:56;46287.44;;;-144.79;100.00
19827;BME280;10074;52.018;4.726;2023-08-17T03:45:57;46283.41;;;-144.79;100.00
19827;BME280;10074;52.018;4.726;2023-08-17T03:51:02;46277.41;;;-144.79;100.00
19827;BME280;10074;52.018;4.726;2023-08-17T03:56:03;46279.41;;;-144.79;100.00
19827;BME280;10074;52.018;4.726;2023-08-17T04:01:04;46275.41;;;-144.79;100.00
19827;BME280;10074;52.018;4.726;2023-08-17T04:06:07;46275.41;;;-144.79;100.00
19827;BME280;10074;52.018;4.726;2023-08-17T04:11:10;46287.44;;;-144.79;100.00
19827;BME280;10074;52.018;4.726;2023-08-17T04:16:11;46283.41;;;-144.79;100.00
19827;BME280;10074;52.018;4.726;2023-08-17T04:21:12;46291.44;;;-144.79;100.00
19827;BME280;10074;52.018;4.726;2023-08-17T04:26:12;46285.41;;;-144.79;100.00
19827;BME280;10074;52.018;4.726;2023-08-17T04:31:13;46287.44;;;-144.79;100.00
19827;BME280;10074;52.018;4.726;2023-08-17T04:36:13;46289.44;;;-144.79;100.00
19827;BME280;10074;52.018;4.726;2023-08-17T04:41:14;46289.44;;;-144.79;100.00
19827;BME280;10074;52.018;4.726;2023-08-17T04:46:14;46291.44;;;-144.79;100.00
19827;BME280;10074;52.018;4.726;2023-08-17T04:51:15;46287.44;;;-144.79;100.00
19827;BME280;10074;52.018;4.726;2023-08-17T04:56:15;46291.44;;;-144.79;100.00
19827;BME280;10074;52.018;4.726;2023-08-17T05:01:16;46289.44;;;-144.79;100.00
19827;BME280;10074;52.018;4.726;2023-08-17T05:06:16;46287.44;;;-144.79;100.00
19827;BME280;10074;52.018;4.726;2023-08-17T05:11:17;46295.44;;;-144.79;100.00
19827;BME280;10074;52.018;4.726;2023-08-17T05:16:17;46297.44;;;-144.79;100.00
19827;BME280;10074;52.018;4.726;2023-08-17T05:21:17;46293.44;;;-144.79;100.00
19827;BME280;10074;52.018;4.726;2023-08-17T05:26:18;46299.47;;;-144.79;100.00
19827;BME280;10074;52.018;4.726;2023-08-17T05:31:18;46297.44;;;-144.79;100.00
19827;BME280;10074;52.018;4.726;2023-08-17T05:36:19;46285.41;;;-144.79;100.00
19827;BME280;10074;52.018;4.726;2023-08-17T05:41:21;46295.44;;;-144.79;100.00
19827;BME280;10074;52.018;4.726;2023-08-17T05:46:22;46295.44;;;-144.79;100.00
19827;BME280;10074;52.018;4.726;2023-08-17T05:51:22;46287.44;;;-144.79;100.00
19827;BME280;10074;52.018;4.726;2023-08-17T05:56:23;46291.44;;;-144.79;100.00
19827;BME280;10074;52.018;4.726;2023-08-17T06:01:24;46291.44;;;-144.79;100.00
19827;BME280;10074;52.018;4.726;2023-08-17T06:06:25;46285.41;;;-144.79;100.00
19827;BME280;10074;52.018;4.726;2023-08-17T06:11:26;46289.44;;;-144.79;100.00
19827;BME280;10074;52.018;4.726;2023-08-17T06:16:26;46293.44;;;-144.79;100.00
19827;BME280;10074;52.018;4.726;2023-08-17T06:21:27;46291.44;;;-144.79;100.00
19827;BME280;10074;52.018;4.726;2023-08-17T06:26:27;46293.44;;;-144.79;100.00
19827;BME280;10074;52.018;4.726;2023-08-17T06:31:27;46295.44;;;-144.79;100.00
19827;BME280;10074;52.018;4.726;2023-08-17T06:36:31;46293.44;;;-144.79;100.00
19827;BME280;10074;52.018;4.726;2023-08-17T06:41:32;46299.47;;;-144.79;100.00
19827;BME280;10074;52.018;4.726;2023-08-17T06:46:32;46289.44;;;-144.79;100.00
19827;BME280;10074;52.018;4.726;2023-08-17T06:51:33;46285.41;;;-144.79;100.00
19827;BME280;10074;52.018;4.726;2023-08-17T06:56:33;46289.44;;;-144.79;100.00
19827;BME280;10074;52.018;4.726;2023-08-17T07:01:33;46291.44;;;-144.79;100.00
19827;BME280;10074;52.018;4.726;2023-08-17T07:06:34;46293.44;;;-144.79;100.00
19827;BME280;10074;52.018;4.726;2023-08-17T07:11:35;46291.44;;;-144.79;100.00
19827;BME280;10074;52.018;4.726;2023-08-17T07:16:35;46285.41;;;-144.79;100.00
19827;BME280;10074;52.018;4.726;2023-08-17T07:21:35;46301.47;;;-144.79;100.00
19827;BME280;10074;52.018;4.726;2023-08-17T07:26:36;46295.44;;;-144.79;100.00
19827;BME280;10074;52.018;4.726;2023-08-17T07:31:37;46293.44;;;-144.79;100.00
19827;BME280;10074;52.018;4.726;2023-08-17T07:36:38;46293.44;;;-144.79;100.00
19827;BME280;10074;52.018;4.726;2023-08-17T07:41:39;46289.44;;;-144.79;100.00
19827;BME280;10074;52.018;4.726;2023-08-17T07:46:39;46291.44;;;-144.79;100.00
19827;BME280;10074;52.018;4.726;2023-08-17T07:51:40;46293.44;;;-144.79;100.00
19827;BME280;10074;52.018;4.726;2023-08-17T07:56:40;46291.44;;;-144.79;100.00
19827;BME280;10074;52.018;4.726;2023-08-17T08:01:40;46287.44;;;-144.79;100.00
19827;BME280;10074;52.018;4.726;2023-08-17T08:06:44;46295.44;;;-144.79;100.00
19827;BME280;10074;52.018;4.726;2023-08-17T08:11:46;46291.44;;;-144.79;100.00
19827;BME280;10074;52.018;4.726;2023-08-17T08:16:46;46291.44;;;-144.79;100.00
19827;BME280;10074;52.018;4.726;2023-08-17T08:21:47;46299.47;;;-144.79;100.00
19827;BME280;10074;52.018;4.726;2023-08-17T08:26:47;46299.47;;;-144.79;100.00
19827;BME280;10074;52.018;4.726;2023-08-17T08:31:48;46295.44;;;-144.79;100.00
19827;BME280;10074;52.018;4.726;2023-08-17T08:36:48;46293.44;;;-144.79;100.00
19827;BME280;10074;52.018;4.726;2023-08-17T08:41:49;46299.47;;;-144.79;100.00
19827;BME280;10074;52.018;4.726;2023-08-17T08:46:50;46297.44;;;-144.79;100.00
19827;BME280;10074;52.018;4.726;2023-08-17T08:51:57;46283.41;;;-144.79;100.00
19827;BME280;10074;52.018;4.726;2023-08-17T08:57:08;46287.44;;;-144.79;100.00
19827;BME280;10074;52.018;4.726;2023-08-17T09:02:16;46287.44;;;-144.79;100.00
19827;BME280;10074;52.018;4.726;2023-08-17T09:07:18;46295.44;;;-144.79;100.00
19827;BME280;10074;52.018;4.726;2023-08-17T09:12:18;46279.41;;;-144.79;100.00
19827;BME280;10074;52.018;4.726;2023-08-17T09:17:28;46279.41;;;-144.79;100.00
19827;BME280;10074;52.018;4.726;2023-08-17T09:22:42;46281.41;;;-144.79;100.00
19827;BME280;10074;52.018;4.726;2023-08-17T09:27:42;46279.41;;;-144.79;100.00
19827;BME280;10074;52.018;4.726;2023-08-17T09:32:43;46283.41;;;-144.79;100.00
19827;BME280;10074;52.018;4.726;2023-08-17T09:37:43;46277.41;;;-144.79;100.00
19827;BME280;10074;52.018;4.726;2023-08-17T09:42:44;46283.41;;;-144.79;100.00
19827;BME280;10074;52.018;4.726;2023-08-17T09:47:45;46279.41;;;-144.79;100.00
19827;BME280;10074;52.018;4.726;2023-08-17T09:52:46;46275.41;;;-144.79;100.00
19827;BME280;10074;52.018;4.726;2023-08-17T09:57:49;46279.41;;;-144.79;100.00
19827;BME280;10074;52.018;4.726;2023-08-17T10:02:50;46277.41;;;-144.79;100.00
19827;BME280;10074;52.018;4.726;2023-08-17T10:07:54;46273.38;;;-144.79;100.00
19827;BME280;10074;52.018;4.726;2023-08-17T10:13:08;46265.38;;;-144.79;100.00
19827;BME280;10074;52.018;4.726;2023-08-17T10:23:16;46271.38;;;-144.79;100.00
19827;BME280;10074;52.018;4.726;2023-08-17T10:28:17;46273.38;;;-144.79;100.00
19827;BME280;10074;52.018;4.726;2023-08-17T10:33:18;46281.41;;;-144.79;100.00
19827;BME280;10074;52.018;4.726;2023-08-17T10:38:19;46275.41;;;-144.79;100.00
19827;BME280;10074;52.018;4.726;2023-08-17T10:43:19;46275.41;;;-144.79;100.00
19827;BME280;10074;52.018;4.726;2023-08-17T10:48:27;46279.41;;;-144.79;100.00
19827;BME280;10074;52.018;4.726;2023-08-17T10:53:34;46267.38;;;-144.79;100.00
19827;BME280;10074;52.018;4.726;2023-08-17T10:58:36;46279.41;;;-144.79;100.00
19827;BME280;10074;52.018;4.726;2023-08-17T11:03:37;46279.41;;;-144.79;100.00
19827;BME280;10074;52.018;4.726;2023-08-17T11:08:56;46267.38;;;-144.79;100.00
19827;BME280;10074;52.018;4.726;2023-08-17T11:13:57;46269.38;;;-144.79;100.00
19827;BME280;10074;52.018;4.726;2023-08-17T11:18:57;46273.38;;;-144.79;100.00
19827;BME280;10074;52.018;4.726;2023-08-17T11:24:00;46279.41;;;-144.79;100.00
19827;BME280;10074;52.018;4.726;2023-08-17T11:29:03;46279.41;;;-144.79;100.00
19827;BME280;10074;52.018;4.726;2023-08-17T11:34:03;46275.41;;;-144.79;100.00
19827;BME280;10074;52.018;4.726;2023-08-17T11:39:05;46279.41;;;-144.79;100.00
19827;BME280;10074;52.018;4.726;2023-08-17T11:44:07;46279.41;;;-144.79;100.00
19827;BME280;10074;52.018;4.726;2023-08-17T11:49:07;46269.38;;;-144.79;100.00
19827;BME280;10074;52.018;4.726;2023-08-17T11:54:08;46275.41;;;-144.79;100.00
19827;BME280;10074;52.018;4.726;2023-08-17T11:59:13;46283.41;;;-144.79;100.00
19827;BME280;10074;52.018;4.726;2023-08-17T12:04:21;46281.41;;;-144.79;100.00
19827;BME280;10074;52.018;4.726;2023-08-17T12:09:21;46287.44;;;-144.79;100.00
19827;BME280;10074;52.018;4.726;2023-08-17T12:14:22;46295.44;;;-144.79;100.00
19827;BME280;10074;52.018;4.726;2023-08-17T12:19:24;46291.44;;;-144.79;100.00
19827;BME280;10074;52.018;4.726;2023-08-17T12:24:25;46299.47;;;-144.79;100.00
19827;BME280;10074;52.018;4.726;2023-08-17T12:29:25;46295.44;;;-144.79;100.00
19827;BME280;10074;52.018;4.726;2023-08-17T12:34:25;46301.47;;;-144.79;100.00
19827;BME280;10074;52.018;4.726;2023-08-17T12:39:27;46305.47;;;-144.79;100.00
19827;BME280;10074;52.018;4.726;2023-08-17T12:44:27;46309.47;;;-144.79;100.00
19827;BME280;10074;52.018;4.726;2023-08-17T12:49:27;46319.50;;;-144.79;100.00
19827;BME280;10074;52.018;4.726;2023-08-17T12:54:28;46319.50;;;-144.79;100.00
19827;BME280;10074;52.018;4.726;2023-08-17T12:59:28;46323.53;;;-144.79;100.00
19827;BME280;10074;52.018;4.726;2023-08-17T13:04:28;46323.53;;;-144.79;100.00
19827;BME280;10074;52.018;4.726;2023-08-17T13:09:29;46341.56;;;-144.79;100.00
19827;BME280;10074;52.018;4.726;2023-08-17T13:14:29;46347.56;;;-144.79;100.00
19827;BME280;10074;52.018;4.726;2023-08-17T13:19:30;46351.59;;;-144.79;100.00
19827;BME280;10074;52.018;4.726;2023-08-17T13:24:30;46347.56;;;-144.79;100.00
19827;BME280;10074;52.018;4.726;2023-08-17T13:29:31;46367.63;;;-144.79;100.00
19827;BME280;10074;52.018;4.726;2023-08-17T13:34:31;46355.59;;;-144.79;100.00
19827;BME280;10074;52.018;4.726;2023-08-17T13:39:31;46369.63;;;-144.79;100.00
19827;BME280;10074;52.018;4.726;2023-08-17T13:44:32;46375.66;;;-144.79;100.00
19827;BME280;10074;52.018;4.726;2023-08-17T13:49:32;46385.69;;;-144.79;100.00
19827;BME280;10074;52.018;4.726;2023-08-17T13:54:33;46377.66;;;-144.79;100.00
19827;BME280;10074;52.018;4.726;2023-08-17T13:59:33;46385.69;;;-144.79;100.00
19827;BME280;10074;52.018;4.726;2023-08-17T14:04:34;46389.69;;;-144.79;100.00
19827;BME280;10074;52.018;4.726;2023-08-17T14:09:34;46391.69;;;-144.79;100.00
19827;BME280;10074;52.018;4.726;2023-08-17T14:14:35;46407.72;;;-144.79;100.00
19827;BME280;10074;52.018;4.726;2023-08-17T14:19:35;46407.72;;;-144.79;100.00
19827;BME280;10074;52.018;4.726;2023-08-17T14:24:36;46409.75;;;-144.79;100.00
19827;BME280;10074;52.018;4.726;2023-08-17T14:29:36;46405.72;;;-144.79;100.00
19827;BME280;10074;52.018;4.726;2023-08-17T14:34:36;46413.75;;;-144.79;100.00
19827;BME280;10074;52.018;4.726;2023-08-17T14:39:37;46413.75;;;-144.79;100.00
19827;BME280;10074;52.018;4.726;2023-08-17T14:44:37;46423.78;;;-144.79;100.00
19827;BME280;10074;52.018;4.726;2023-08-17T14:49:38;46419.75;;;-144.79;100.00
19827;BME280;10074;52.018;4.726;2023-08-17T14:54:38;46423.78;;;-144.79;100.00
19827;BME280;10074;52.018;4.726;2023-08-17T14:59:38;46423.78;;;-144.79;100.00
19827;BME280;10074;52.018;4.726;2023-08-17T15:04:39;46427.78;;;-144.79;100.00
19827;BME280;10074;52.018;4.726;2023-08-17T15:09:39;46425.78;;;-144.79;100.00
19827;BME280;10074;52.018;4.726;2023-08-17T15:14:40;46421.78;;;-144.79;100.00
19827;BME280;10074;52.018;4.726;2023-08-17T15:19:40;46423.78;;;-144.79;100.00
19827;BME280;10074;52.018;4.726;2023-08-17T15:24:41;46423.78;;;-144.79;100.00
19827;BME280;10074;52.018;4.726;2023-08-17T15:29:43;46423.78;;;-144.79;100.00
19827;BME280;10074;52.018;4.726;2023-08-17T15:34:44;46427.78;;;-144.79;100.00
19827;BME280;10074;52.018;4.726;2023-08-17T15:39:44;46425.78;;;-144.79;100.00
19827;BME280;10074;52.018;4.726;2023-08-17T15:44:45;46425.78;;;-144.79;100.00
19827;BME280;10074;52.018;4.726;2023-08-17T15:49:45;46433.81;;;-144.79;100.00
19827;BME280;10074;52.018;4.726;2023-08-17T15:54:48;46431.78;;;-144.79;100.00
19827;BME280;10074;52.018;4.726;2023-08-17T15:59:48;46435.81;;;-144.79;100.00
19827;BME280;10074;52.018;4.726;2023-08-17T16:04:50;46435.81;;;-144.79;100.00
19827;BME280;10074;52.018;4.726;2023-08-17T16:09:51;46435.81;;;-144.79;100.00
19827;BME280;10074;52.018;4.726;2023-08-17T16:14:53;46443.81;;;-144.79;100.00
19827;BME280;10074;52.018;4.726;2023-08-17T16:19:53;46441.81;;;-144.79;100.00
19827;BME280;10074;52.018;4.726;2023-08-17T16:24:54;46445.84;;;-144.79;100.00
19827;BME280;10074;52.018;4.726;2023-08-17T16:29:54;46441.81;;;-144.79;100.00
19827;BME280;10074;52.018;4.726;2023-08-17T16:34:56;46443.81;;;-144.79;100.00
19827;BME280;10074;52.018;4.726;2023-08-17T16:39:56;46443.81;;;-144.79;100.00
19827;BME280;10074;52.018;4.726;2023-08-17T16:44:56;46447.84;;;-144.79;100.00
19827;BME280;10074;52.018;4.726;2023-08-17T16:49:57;46449.84;;;-144.79;100.00
19827;BME280;10074;52.018;4.726;2023-08-17T16:54:57;46453.84;;;-144.79;100.00
19827;BME280;10074;52.018;4.726;2023-08-17T16:59:58;46453.84;;;-144.79;100.00
19827;BME280;10074;52.018;4.726;2023-08-17T17:04:58;46451.84;;;-144.79;100.00
19827;BME280;10074;52.018;4.726;2023-08-17T17:09:58;46451.84;;;-144.79;100.00
19827;BME280;10074;52.018;4.726;2023-08-17T17:15:00;46459.88;;;-144.79;100.00
19827;BME280;10074;52.018;4.726;2023-08-17T17:20:01;46455.84;;;-144.79;100.00
19827;BME280;10074;52.018;4.726;2023-08-17T17:25:02;46459.88;;;-144.79;100.00
19827;BME280;10074;52.018;4.726;2023-08-17T17:30:04;46461.88;;;-144.79;100.00
19827;BME280;10074;52.018;4.726;2023-08-17T17:35:06;46461.88;;;-144.79;100.00
19827;BME280;10074;52.018;4.726;2023-08-17T17:40:07;46463.88;;;-144.79;100.00
19827;BME280;10074;52.018;4.726;2023-08-17T17:45:09;46459.88;;;-144.79;100.00
19827;BME280;10074;52.018;4.726;2023-08-17T17:50:09;46459.88;;;-144.79;100.00
19827;BME280;10074;52.018;4.726;2023-08-17T17:55:10;46461.88;;;-144.79;100.00
19827;BME280;10074;52.018;4.726;2023-08-17T18:00:11;46463.88;;;-144.79;100.00
19827;BME280;10074;52.018;4.726;2023-08-17T18:05:12;46463.88;;;-144.79;100.00
19827;BME280;10074;52.018;4.726;2023-08-17T18:10:12;46463.88;;;-144.79;100.00
19827;BME280;10074;52.018;4.726;2023-08-17T18:15:13;46469.88;;;-144.79;100.00
19827;BME280;10074;52.018;4.726;2023-08-17T18:20:14;46463.88;;;-144.79;100.00
19827;BME280;10074;52.018;4.726;2023-08-17T18:25:14;46467.88;;;-144.79;100.00
19827;BME280;10074;52.018;4.726;2023-08-17T18:30:15;46463.88;;;-144.79;100.00
19827;BME280;10074;52.018;4.726;2023-08-17T18:35:16;46467.88;;;-144.79;100.00
19827;BME280;10074;52.018;4.726;2023-08-17T18:40:17;46473.91;;;-144.79;100.00
19827;BME280;10074;52.018;4.726;2023-08-17T18:45:19;46469.88;;;-144.79;100.00
19827;BME280;10074;52.018;4.726;2023-08-17T18:50:21;46467.88;;;-144.79;100.00
19827;BME280;10074;52.018;4.726;2023-08-17T18:55:21;46469.88;;;-144.79;100.00
19827;BME280;10074;52.018;4.726;2023-08-17T19:00:22;46465.88;;;-144.79;100.00
19827;BME280;10074;52.018;4.726;2023-08-17T19:05:23;46467.88;;;-144.79;100.00
19827;BME280;10074;52.018;4.726;2023-08-17T19:10:24;46469.88;;;-144.79;100.00
19827;BME280;10074;52.018;4.726;2023-08-17T19:15:26;46467.88;;;-144.79;100.00
19827;BME280;10074;52.018;4.726;2023-08-17T19:20:26;46467.88;;;-144.79;100.00
19827;BME280;10074;52.018;4.726;2023-08-17T19:25:27;46469.88;;;-144.79;100.00
19827;BME280;10074;52.018;4.726;2023-08-17T19:30:28;46471.91;;;-144.79;100.00
19827;BME280;10074;52.018;4.726;2023-08-17T19:35:28;46467.88;;;-144.79;100.00
19827;BME280;10074;52.018;4.726;2023-08-17T19:40:29;46467.88;;;-144.79;100.00
19827;BME280;10074;52.018;4.726;2023-08-17T19:45:30;46471.91;;;-144.79;100.00
19827;BME280;10074;52.018;4.726;2023-08-17T19:50:30;46471.91;;;-144.79;100.00
19827;BME280;10074;52.018;4.726;2023-08-17T19:55:31;46469.88;;;-144.79;100.00
19827;BME280;10074;52.018;4.726;2023-08-17T20:00:31;46467.88;;;-144.79;100.00
19827;BME280;10074;52.018;4.726;2023-08-17T20:05:32;46467.88;;;-144.79;100.00
19827;BME280;10074;52.018;4.726;2023-08-17T20:10:32;46467.88;;;-144.79;100.00
19827;BME280;10074;52.018;4.726;2023-08-17T20:15:33;46469.88;;;-144.79;100.00
19827;BME280;10074;52.018;4.726;2023-08-17T20:20:33;46469.88;;;-144.79;100.00
19827;BME280;10074;52.018;4.726;2023-08-17T20:25:34;46467.88;;;-144.79;100.00
19827;BME280;10074;52.018;4.726;2023-08-17T20:30:34;46471.91;;;-144.79;100.00
19827;BME280;10074;52.018;4.726;2023-08-17T20:35:39;46469.88;;;-144.79;100.00
19827;BME280;10074;52.018;4.726;2023-08-17T20:40:41;46467.88;;;-144.79;100.00
19827;BME280;10074;52.018;4.726;2023-08-17T20:45:42;46467.88;;;-144.79;100.00
19827;BME280;10074;52.018;4.726;2023-08-17T20:50:43;46471.91;;;-144.79;100.00
19827;BME280;10074;52.018;4.726;2023-08-17T20:55:45;46471.91;;;-144.79;100.00
19827;BME280;10074;52.018;4.726;2023-08-17T21:00:45;46471.91;;;-144.79;100.00
19827;BME280;10074;52.018;4.726;2023-08-17T21:05:45;46473.91;;;-144.79;100.00
19827;BME280;10074;52.018;4.726;2023-08-17T21:10:47;46471.91;;;-144.79;100.00
19827;BME280;10074;52.018;4.726;2023-08-17T21:15:48;46471.91;;;-144.79;100.00
19827;BME280;10074;52.018;4.726;2023-08-17T21:20:48;46467.88;;;-144.79;100.00
19827;BME280;10074;52.018;4.726;2023-08-17T21:25:49;46471.91;;;-144.79;100.00
19827;BME280;10074;52.018;4.726;2023-08-17T21:30:50;46469.88;;;-144.79;100.00
19827;BME280;10074;52.018;4.726;2023-08-17T21:35:53;46467.88;;;-144.79;100.00
19827;BME280;10074;52.018;4.726;2023-08-17T21:40:57;46469.88;;;-144.79;100.00
19827;BME280;10074;52.018;4.726;2023-08-17T21:45:59;46473.91;;;-144.79;100.00
19827;BME280;10074;52.018;4.726;2023-08-17T21:51:02;46469.88;;;-144.79;100.00
19827;BME280;10074;52.018;4.726;2023-08-17T21:56:03;46467.88;;;-144.79;100.00
19827;BME280;10074;52.018;4.726;2023-08-17T22:01:04;46467.88;;;-144.79;100.00
19827;BME280;10074;52.018;4.726;2023-08-17T22:06:04;46473.91;;;-144.79;100.00
19827;BME280;10074;52.018;4.726;2023-08-17T22:11:08;46467.88;;;-144.79;100.00
19827;BME280;10074;52.018;4.726;2023-08-17T22:16:08;46471.91;;;-144.79;100.00
19827;BME280;10074;52.018;4.726;2023-08-17T22:21:08;46465.88;;;-144.79;100.00
19827;BME280;10074;52.018;4.726;2023-08-17T22:26:10;46471.91;;;-144.79;100.00
19827;BME280;10074;52.018;4.726;2023-08-17T22:31:13;46473.91;;;-144.79;100.00
19827;BME280;10074;52.018;4.726;2023-08-17T22:36:14;46467.88;;;-144.79;100.00
19827;BME280;10074;52.018;4.726;2023-08-17T22:41:14;46469.88;;;-144.79;100.00
19827;BME280;10074;52.018;4.726;2023-08-17T22:46:17;46469.88;;;-144.79;100.00
19827;BME280;10074;52.018;4.726;2023-08-17T22:51:17;46473.91;;;-144.79;100.00
19827;BME280;10074;52.018;4.726;2023-08-17T22:56:18;46471.91;;;-144.79;100.00
19827;BME280;10074;52.018;4.726;2023-08-17T23:01:18;46475.91;;;-144.79;100.00
19827;BME280;10074;52.018;4.726;2023-08-17T23:06:19;46471.91;;;-144.79;100.00
19827;BME280;10074;52.018;4.726;2023-08-17T23:11:20;46469.88;;;-144.79;100.00
19827;BME280;10074;52.018;4.726;2023-08-17T23:16:20;46473.91;;;-144.79;100.00
19827;BME280;10074;52.018;4.726;2023-08-17T23:21:21;46473.91;;;-144.79;100.00
19827;BME280;10074;52.018;4.726;2023-08-17T23:26:21;46467.88;;;-144.79;100.00
19827;BME280;10074;52.018;4.726;2023-08-17T23:31:22;46471.91;;;-144.79;100.00
19827;BME280;10074;52.018;4.726;2023-08-17T23:36:23;46473.91;;;-144.79;100.00
19827;BME280;10074;52.018;4.726;2023-08-17T23:41:24;46471.91;;;-144.79;100.00
19827;BME280;10074;52.018;4.726;2023-08-17T23:46:30;46469.88;;;-144.79;100.00
19827;BME280;10074;52.018;4.726;2023-08-17T23:51:31;46469.88;;;-144.79;100.00
19827;BME280;10074;52.018;4.726;2023-08-17T23:56:31;46471.91;;;-144.79;100.00
